sensor_id;sensor_type;location;lat;lon;timestamp;pressure;altitude;pressure_sealevel;temperature;humidity
63351;BME280;64988;51.058;17.040;2023-03-23T00:03:02;99504.94;;;12.82;58.15
63351;BME280;64988;51.058;17.040;2023-03-23T00:08:28;99499.75;;;12.89;57.66
63351;BME280;64988;51.058;17.040;2023-03-23T00:13:59;99505.94;;;12.81;58.22
63351;BME280;64988;51.058;17.040;2023-03-23T00:19:26;99504.84;;;12.92;57.76
63351;BME280;64988;51.058;17.040;2023-03-23T00:24:52;99503.81;;;12.93;58.05
63351;BME280;64988;51.058;17.040;2023-03-23T00:30:18;99508.63;;;12.81;58.14
63351;BME280;64988;51.058;17.040;2023-03-23T00:35:44;99498.78;;;12.80;58.28
63351;BME280;64988;51.058;17.040;2023-03-23T00:41:10;99496.72;;;12.92;57.79
63351;BME280;64988;51.058;17.040;2023-03-23T00:46:37;99500.13;;;12.94;58.04
63351;BME280;64988;51.058;17.040;2023-03-23T00:52:10;99497.00;;;13.06;57.42
63351;BME280;64988;51.058;17.040;2023-03-23T00:57:37;99481.91;;;13.22;57.19
63351;BME280;64988;51.058;17.040;2023-03-23T01:03:03;99477.66;;;13.37;56.38
63351;BME280;64988;51.058;17.040;2023-03-23T01:08:30;99471.06;;;13.39;56.97
63351;BME280;64988;51.058;17.040;2023-03-23T01:13:57;99479.94;;;13.49;56.20
63351;BME280;64988;51.058;17.040;2023-03-23T01:19:24;99472.34;;;13.27;56.57
63351;BME280;64988;51.058;17.040;2023-03-23T01:24:51;99468.78;;;13.52;56.13
63351;BME280;64988;51.058;17.040;2023-03-23T01:30:18;99472.88;;;13.56;55.56
63351;BME280;64988;51.058;17.040;2023-03-23T01:35:44;99459.53;;;13.63;54.96
63351;BME280;64988;51.058;17.040;2023-03-23T01:41:11;99456.53;;;13.74;54.73
63351;BME280;64988;51.058;17.040;2023-03-23T01:46:38;99457.59;;;13.81;54.64
63351;BME280;64988;51.058;17.040;2023-03-23T01:52:08;99450.84;;;13.93;54.58
63351;BME280;64988;51.058;17.040;2023-03-23T01:57:35;99446.34;;;14.02;54.14
63351;BME280;64988;51.058;17.040;2023-03-23T02:03:01;99433.13;;;14.07;54.38
63351;BME280;64988;51.058;17.040;2023-03-23T02:08:32;99431.25;;;14.07;54.47
63351;BME280;64988;51.058;17.040;2023-03-23T02:14:01;99431.25;;;14.07;54.30
63351;BME280;64988;51.058;17.040;2023-03-23T02:19:41;99422.78;;;14.10;54.37
63351;BME280;64988;51.058;17.040;2023-03-23T02:25:24;99420.22;;;14.09;54.13
63351;BME280;64988;51.058;17.040;2023-03-23T02:31:12;99416.34;;;14.11;54.12
63351;BME280;64988;51.058;17.040;2023-03-23T02:36:50;99408.50;;;14.00;55.24
63351;BME280;64988;51.058;17.040;2023-03-23T02:42:31;99405.25;;;13.97;55.00
63351;BME280;64988;51.058;17.040;2023-03-23T02:48:01;99417.06;;;14.22;54.35
63351;BME280;64988;51.058;17.040;2023-03-23T02:53:29;99416.88;;;14.23;54.15
63351;BME280;64988;51.058;17.040;2023-03-23T02:58:56;99418.28;;;14.35;53.66
63351;BME280;64988;51.058;17.040;2023-03-23T03:04:26;99417.47;;;14.43;54.01
63351;BME280;64988;51.058;17.040;2023-03-23T03:10:07;99416.81;;;14.41;53.97
63351;BME280;64988;51.058;17.040;2023-03-23T03:21:16;99405.28;;;14.47;53.75
63351;BME280;64988;51.058;17.040;2023-03-23T03:26:49;99392.38;;;14.49;52.94
63351;BME280;64988;51.058;17.040;2023-03-23T03:32:36;99391.69;;;14.55;52.88
63351;BME280;64988;51.058;17.040;2023-03-23T03:38:08;99384.88;;;14.51;52.95
63351;BME280;64988;51.058;17.040;2023-03-23T03:43:35;99385.25;;;14.56;52.59
63351;BME280;64988;51.058;17.040;2023-03-23T03:49:07;99375.41;;;14.63;52.13
63351;BME280;64988;51.058;17.040;2023-03-23T03:54:36;99376.75;;;14.67;52.09
63351;BME280;64988;51.058;17.040;2023-03-23T04:00:04;99371.84;;;14.62;52.22
63351;BME280;64988;51.058;17.040;2023-03-23T04:05:40;99388.81;;;14.64;52.20
63351;BME280;64988;51.058;17.040;2023-03-23T04:11:11;99390.34;;;14.59;52.27
63351;BME280;64988;51.058;17.040;2023-03-23T04:16:37;99378.81;;;14.57;52.47
63351;BME280;64988;51.058;17.040;2023-03-23T04:22:04;99384.97;;;14.25;53.05
63351;BME280;64988;51.058;17.040;2023-03-23T04:27:34;99380.94;;;14.29;53.70
63351;BME280;64988;51.058;17.040;2023-03-23T04:33:03;99393.78;;;14.19;54.24
63351;BME280;64988;51.058;17.040;2023-03-23T04:38:29;99381.63;;;14.31;53.90
63351;BME280;64988;51.058;17.040;2023-03-23T04:44:06;99374.19;;;14.41;53.60
63351;BME280;64988;51.058;17.040;2023-03-23T04:49:39;99374.56;;;14.79;52.55
63351;BME280;64988;51.058;17.040;2023-03-23T04:55:24;99370.16;;;14.86;52.26
63351;BME280;64988;51.058;17.040;2023-03-23T05:00:56;99371.13;;;15.09;51.71
63351;BME280;64988;51.058;17.040;2023-03-23T05:06:25;99371.13;;;15.17;51.37
63351;BME280;64988;51.058;17.040;2023-03-23T05:11:56;99363.16;;;15.07;51.31
63351;BME280;64988;51.058;17.040;2023-03-23T05:17:26;99362.97;;;15.17;51.19
63351;BME280;64988;51.058;17.040;2023-03-23T05:22:56;99362.09;;;15.41;49.89
63351;BME280;64988;51.058;17.040;2023-03-23T05:28:33;99355.78;;;15.56;50.00
63351;BME280;64988;51.058;17.040;2023-03-23T05:34:08;99354.22;;;15.62;49.43
63351;BME280;64988;51.058;17.040;2023-03-23T05:39:48;99360.59;;;15.85;48.49
63351;BME280;64988;51.058;17.040;2023-03-23T05:45:23;99356.00;;;15.86;47.87
63351;BME280;64988;51.058;17.040;2023-03-23T05:50:51;99357.56;;;16.11;46.85
63351;BME280;64988;51.058;17.040;2023-03-23T05:56:21;99356.19;;;16.38;46.94
63351;BME280;64988;51.058;17.040;2023-03-23T06:02:06;99355.19;;;16.61;46.35
63351;BME280;64988;51.058;17.040;2023-03-23T06:07:33;99355.69;;;16.65;46.03
63351;BME280;64988;51.058;17.040;2023-03-23T06:13:04;99343.91;;;16.64;46.11
63351;BME280;64988;51.058;17.040;2023-03-23T06:18:42;99348.44;;;17.09;45.13
63351;BME280;64988;51.058;17.040;2023-03-23T06:24:29;99350.09;;;17.92;43.96
63351;BME280;64988;51.058;17.040;2023-03-23T06:29:55;99346.91;;;18.81;42.23
63351;BME280;64988;51.058;17.040;2023-03-23T06:35:23;99340.63;;;19.36;40.23
63351;BME280;64988;51.058;17.040;2023-03-23T06:41:21;99330.97;;;20.22;38.61
63351;BME280;64988;51.058;17.040;2023-03-23T06:46:47;99341.81;;;20.50;37.37
63351;BME280;64988;51.058;17.040;2023-03-23T06:52:35;99341.84;;;20.56;37.22
63351;BME280;64988;51.058;17.040;2023-03-23T06:58:02;99342.69;;;20.63;36.85
63351;BME280;64988;51.058;17.040;2023-03-23T07:03:29;99346.53;;;20.95;36.36
63351;BME280;64988;51.058;17.040;2023-03-23T07:08:58;99343.63;;;21.16;35.40
63351;BME280;64988;51.058;17.040;2023-03-23T07:14:27;99336.91;;;22.03;33.69
63351;BME280;64988;51.058;17.040;2023-03-23T07:19:53;99336.97;;;24.07;30.75
63351;BME280;64988;51.058;17.040;2023-03-23T07:25:20;99334.75;;;24.75;29.42
63351;BME280;64988;51.058;17.040;2023-03-23T07:30:52;99327.38;;;23.55;31.53
63351;BME280;64988;51.058;17.040;2023-03-23T07:36:19;99331.84;;;22.75;33.43
63351;BME280;64988;51.058;17.040;2023-03-23T07:41:46;99345.47;;;22.26;34.20
63351;BME280;64988;51.058;17.040;2023-03-23T07:47:27;99339.75;;;22.21;35.34
63351;BME280;64988;51.058;17.040;2023-03-23T07:52:56;99341.09;;;24.64;31.74
63351;BME280;64988;51.058;17.040;2023-03-23T07:58:24;99333.63;;;26.79;27.41
63351;BME280;64988;51.058;17.040;2023-03-23T08:03:54;99331.00;;;24.99;30.14
63351;BME280;64988;51.058;17.040;2023-03-23T08:09:47;99315.75;;;24.26;30.90
63351;BME280;64988;51.058;17.040;2023-03-23T08:15:33;99323.34;;;22.83;33.19
63351;BME280;64988;51.058;17.040;2023-03-23T08:21:31;99306.63;;;23.28;33.05
63351;BME280;64988;51.058;17.040;2023-03-23T08:27:32;99297.88;;;24.28;30.34
63351;BME280;64988;51.058;17.040;2023-03-23T08:33:27;99295.63;;;28.17;25.88
63351;BME280;64988;51.058;17.040;2023-03-23T08:39:19;99309.31;;;31.12;21.68
63351;BME280;64988;51.058;17.040;2023-03-23T08:45:18;99326.13;;;32.86;19.67
63351;BME280;64988;51.058;17.040;2023-03-23T08:50:53;99314.31;;;31.26;20.87
63351;BME280;64988;51.058;17.040;2023-03-23T08:56:33;99314.50;;;30.58;20.75
63351;BME280;64988;51.058;17.040;2023-03-23T09:02:26;99321.63;;;32.90;18.63
63351;BME280;64988;51.058;17.040;2023-03-23T09:08:03;99330.75;;;31.12;19.94
63351;BME280;64988;51.058;17.040;2023-03-23T09:13:29;99338.69;;;29.91;21.56
63351;BME280;64988;51.058;17.040;2023-03-23T09:18:56;99343.75;;;28.98;22.57
63351;BME280;64988;51.058;17.040;2023-03-23T09:24:24;99333.59;;;28.82;23.20
63351;BME280;64988;51.058;17.040;2023-03-23T09:29:51;99335.88;;;28.63;22.99
63351;BME280;64988;51.058;17.040;2023-03-23T09:35:16;99333.06;;;28.58;23.60
63351;BME280;64988;51.058;17.040;2023-03-23T09:40:52;99337.53;;;29.18;23.19
63351;BME280;64988;51.058;17.040;2023-03-23T09:52:15;99354.09;;;30.08;22.00
63351;BME280;64988;51.058;17.040;2023-03-23T10:03:24;99339.88;;;28.73;23.15
63351;BME280;64988;51.058;17.040;2023-03-23T10:08:55;99355.16;;;28.97;23.23
63351;BME280;64988;51.058;17.040;2023-03-23T10:31:44;99334.38;;;31.38;20.14
63351;BME280;64988;51.058;17.040;2023-03-23T10:37:34;99343.72;;;29.94;21.96
63351;BME280;64988;51.058;17.040;2023-03-23T10:43:02;99351.13;;;28.17;23.03
63351;BME280;64988;51.058;17.040;2023-03-23T10:48:35;99348.41;;;27.29;24.15
63351;BME280;64988;51.058;17.040;2023-03-23T10:54:04;99355.25;;;26.65;24.84
63351;BME280;64988;51.058;17.040;2023-03-23T10:59:31;99354.94;;;27.06;25.20
63351;BME280;64988;51.058;17.040;2023-03-23T11:05:01;99358.22;;;27.53;23.94
63351;BME280;64988;51.058;17.040;2023-03-23T11:10:37;99351.38;;;27.94;23.91
63351;BME280;64988;51.058;17.040;2023-03-23T11:16:04;99353.53;;;27.54;24.64
63351;BME280;64988;51.058;17.040;2023-03-23T11:21:31;99356.78;;;27.18;24.72
63351;BME280;64988;51.058;17.040;2023-03-23T11:26:59;99360.97;;;27.37;25.54
63351;BME280;64988;51.058;17.040;2023-03-23T11:32:28;99369.16;;;28.15;25.19
63351;BME280;64988;51.058;17.040;2023-03-23T11:37:56;99366.88;;;28.34;24.33
63351;BME280;64988;51.058;17.040;2023-03-23T11:43:24;99356.50;;;28.46;23.37
63351;BME280;64988;51.058;17.040;2023-03-23T11:49:02;99368.00;;;28.11;24.17
63351;BME280;64988;51.058;17.040;2023-03-23T11:54:38;99371.41;;;28.01;24.99
63351;BME280;64988;51.058;17.040;2023-03-23T12:00:19;99360.44;;;28.06;24.38
63351;BME280;64988;51.058;17.040;2023-03-23T12:06:02;99375.97;;;27.52;25.13
63351;BME280;64988;51.058;17.040;2023-03-23T12:28:56;99363.81;;;26.24;26.77
63351;BME280;64988;51.058;17.040;2023-03-23T12:57:49;99355.41;;;26.58;26.87
63351;BME280;64988;51.058;17.040;2023-03-23T13:03:27;99359.09;;;26.64;26.20
63351;BME280;64988;51.058;17.040;2023-03-23T13:09:00;99342.16;;;26.60;26.76
63351;BME280;64988;51.058;17.040;2023-03-23T13:15:11;99350.88;;;26.41;26.61
63351;BME280;64988;51.058;17.040;2023-03-23T13:20:54;99356.53;;;26.46;27.29
63351;BME280;64988;51.058;17.040;2023-03-23T13:26:22;99368.75;;;26.61;26.72
63351;BME280;64988;51.058;17.040;2023-03-23T13:31:50;99357.84;;;26.83;26.99
63351;BME280;64988;51.058;17.040;2023-03-23T13:42:55;99352.34;;;27.17;26.12
63351;BME280;64988;51.058;17.040;2023-03-23T13:48:24;99351.41;;;27.11;25.71
63351;BME280;64988;51.058;17.040;2023-03-23T13:53:50;99347.81;;;26.66;26.75
63351;BME280;64988;51.058;17.040;2023-03-23T13:59:48;99348.25;;;25.83;27.90
63351;BME280;64988;51.058;17.040;2023-03-23T14:10:56;99348.72;;;25.45;29.38
63351;BME280;64988;51.058;17.040;2023-03-23T14:16:42;99351.22;;;25.35;29.63
63351;BME280;64988;51.058;17.040;2023-03-23T14:22:27;99357.34;;;25.14;30.11
63351;BME280;64988;51.058;17.040;2023-03-23T14:27:54;99356.19;;;24.91;30.11
63351;BME280;64988;51.058;17.040;2023-03-23T14:33:25;99357.59;;;25.35;29.78
63351;BME280;64988;51.058;17.040;2023-03-23T14:39:27;99343.22;;;25.56;30.24
63351;BME280;64988;51.058;17.040;2023-03-23T14:45:00;99339.09;;;25.59;30.48
63351;BME280;64988;51.058;17.040;2023-03-23T14:50:38;99350.84;;;25.43;30.85
63351;BME280;64988;51.058;17.040;2023-03-23T14:56:13;99357.44;;;25.19;31.16
63351;BME280;64988;51.058;17.040;2023-03-23T15:01:42;99352.13;;;24.94;31.58
63351;BME280;64988;51.058;17.040;2023-03-23T15:07:14;99350.97;;;24.72;32.50
63351;BME280;64988;51.058;17.040;2023-03-23T15:12:45;99352.28;;;24.39;33.81
63351;BME280;64988;51.058;17.040;2023-03-23T15:18:45;99350.81;;;24.67;33.60
63351;BME280;64988;51.058;17.040;2023-03-23T15:24:27;99348.75;;;24.62;33.35
63351;BME280;64988;51.058;17.040;2023-03-23T15:29:59;99330.47;;;24.49;33.88
63351;BME280;64988;51.058;17.040;2023-03-23T15:35:34;99313.81;;;24.56;33.12
63351;BME280;64988;51.058;17.040;2023-03-23T15:41:28;99304.66;;;24.44;33.50
63351;BME280;64988;51.058;17.040;2023-03-23T15:47:17;99320.34;;;24.14;33.90
63351;BME280;64988;51.058;17.040;2023-03-23T15:52:48;99327.53;;;23.96;35.06
63351;BME280;64988;51.058;17.040;2023-03-23T15:58:15;99327.91;;;23.82;34.86
63351;BME280;64988;51.058;17.040;2023-03-23T16:09:24;99340.84;;;23.45;35.67
63351;BME280;64988;51.058;17.040;2023-03-23T16:14:55;99323.41;;;23.26;36.02
63351;BME280;64988;51.058;17.040;2023-03-23T16:20:34;99329.44;;;22.85;36.71
63351;BME280;64988;51.058;17.040;2023-03-23T16:26:04;99333.44;;;22.58;37.33
63351;BME280;64988;51.058;17.040;2023-03-23T16:31:33;99338.19;;;22.38;37.69
63351;BME280;64988;51.058;17.040;2023-03-23T16:37:01;99340.50;;;21.96;39.06
63351;BME280;64988;51.058;17.040;2023-03-23T16:42:29;99332.09;;;21.65;39.10
63351;BME280;64988;51.058;17.040;2023-03-23T16:47:57;99347.09;;;21.76;38.58
63351;BME280;64988;51.058;17.040;2023-03-23T16:53:37;99352.88;;;21.41;39.49
63351;BME280;64988;51.058;17.040;2023-03-23T16:59:05;99345.72;;;21.21;40.22
63351;BME280;64988;51.058;17.040;2023-03-23T17:04:37;99352.66;;;21.10;40.18
63351;BME280;64988;51.058;17.040;2023-03-23T17:10:09;99360.03;;;20.90;40.46
63351;BME280;64988;51.058;17.040;2023-03-23T17:15:39;99361.50;;;20.73;40.66
63351;BME280;64988;51.058;17.040;2023-03-23T17:21:11;99370.72;;;20.52;40.82
63351;BME280;64988;51.058;17.040;2023-03-23T17:26:39;99378.72;;;20.47;41.20
63351;BME280;64988;51.058;17.040;2023-03-23T17:32:07;99383.97;;;20.35;40.97
63351;BME280;64988;51.058;17.040;2023-03-23T17:37:35;99371.63;;;20.12;41.56
63351;BME280;64988;51.058;17.040;2023-03-23T17:43:05;99384.03;;;20.08;41.77
63351;BME280;64988;51.058;17.040;2023-03-23T17:48:35;99385.91;;;20.07;41.89
63351;BME280;64988;51.058;17.040;2023-03-23T17:54:04;99383.34;;;19.99;42.24
63351;BME280;64988;51.058;17.040;2023-03-23T17:59:32;99385.41;;;19.90;42.50
63351;BME280;64988;51.058;17.040;2023-03-23T18:05:00;99391.31;;;19.94;42.61
63351;BME280;64988;51.058;17.040;2023-03-23T18:10:29;99408.78;;;19.86;42.84
63351;BME280;64988;51.058;17.040;2023-03-23T18:15:57;99421.38;;;19.81;43.21
63351;BME280;64988;51.058;17.040;2023-03-23T18:21:24;99415.66;;;19.76;43.25
63351;BME280;64988;51.058;17.040;2023-03-23T18:26:53;99395.38;;;19.64;43.28
63351;BME280;64988;51.058;17.040;2023-03-23T18:32:22;99412.25;;;19.67;43.38
63351;BME280;64988;51.058;17.040;2023-03-23T18:37:49;99407.19;;;19.64;43.55
63351;BME280;64988;51.058;17.040;2023-03-23T18:43:18;99422.72;;;19.57;44.11
63351;BME280;64988;51.058;17.040;2023-03-23T18:48:45;99433.78;;;19.49;44.27
63351;BME280;64988;51.058;17.040;2023-03-23T18:54:13;99439.03;;;19.44;44.38
63351;BME280;64988;51.058;17.040;2023-03-23T18:59:40;99439.78;;;19.38;44.28
63351;BME280;64988;51.058;17.040;2023-03-23T19:05:09;99445.06;;;19.39;44.28
63351;BME280;64988;51.058;17.040;2023-03-23T19:10:40;99449.88;;;19.37;44.24
63351;BME280;64988;51.058;17.040;2023-03-23T19:16:08;99431.13;;;19.34;44.29
63351;BME280;64988;51.058;17.040;2023-03-23T19:21:48;99422.19;;;19.26;44.56
63351;BME280;64988;51.058;17.040;2023-03-23T19:27:15;99421.38;;;19.25;44.07
63351;BME280;64988;51.058;17.040;2023-03-23T19:32:45;99428.47;;;19.20;44.59
63351;BME280;64988;51.058;17.040;2023-03-23T19:38:12;99432.91;;;19.21;44.45
63351;BME280;64988;51.058;17.040;2023-03-23T19:43:42;99427.81;;;19.18;44.41
63351;BME280;64988;51.058;17.040;2023-03-23T19:49:10;99427.75;;;19.11;44.77
63351;BME280;64988;51.058;17.040;2023-03-23T19:54:41;99432.19;;;19.12;44.90
63351;BME280;64988;51.058;17.040;2023-03-23T20:00:10;99438.47;;;19.06;45.15
63351;BME280;64988;51.058;17.040;2023-03-23T20:05:40;99435.06;;;19.04;45.51
63351;BME280;64988;51.058;17.040;2023-03-23T20:11:11;99452.50;;;19.03;45.74
63351;BME280;64988;51.058;17.040;2023-03-23T20:16:38;99458.75;;;18.97;46.06
63351;BME280;64988;51.058;17.040;2023-03-23T20:22:10;99467.16;;;18.96;46.07
63351;BME280;64988;51.058;17.040;2023-03-23T20:27:49;99464.22;;;18.97;46.32
63351;BME280;64988;51.058;17.040;2023-03-23T20:33:20;99464.44;;;18.96;46.11
63351;BME280;64988;51.058;17.040;2023-03-23T20:38:49;99471.91;;;18.87;46.33
63351;BME280;64988;51.058;17.040;2023-03-23T20:44:25;99475.84;;;18.63;46.85
63351;BME280;64988;51.058;17.040;2023-03-23T20:50:00;99475.56;;;18.44;47.51
63351;BME280;64988;51.058;17.040;2023-03-23T20:55:30;99462.03;;;18.21;47.97
63351;BME280;64988;51.058;17.040;2023-03-23T21:01:01;99462.59;;;17.87;48.34
63351;BME280;64988;51.058;17.040;2023-03-23T21:06:30;99463.66;;;17.49;49.38
63351;BME280;64988;51.058;17.040;2023-03-23T21:12:01;99469.97;;;17.12;50.41
63351;BME280;64988;51.058;17.040;2023-03-23T21:17:31;99470.81;;;16.90;51.42
63351;BME280;64988;51.058;17.040;2023-03-23T21:23:01;99473.31;;;16.68;52.16
63351;BME280;64988;51.058;17.040;2023-03-23T21:28:37;99477.00;;;16.45;52.74
63351;BME280;64988;51.058;17.040;2023-03-23T21:34:05;99492.59;;;16.28;52.63
63351;BME280;64988;51.058;17.040;2023-03-23T21:39:34;99499.47;;;16.08;53.85
63351;BME280;64988;51.058;17.040;2023-03-23T21:45:04;99496.09;;;15.90;54.06
63351;BME280;64988;51.058;17.040;2023-03-23T21:50:34;99485.09;;;15.75;54.69
63351;BME280;64988;51.058;17.040;2023-03-23T21:56:06;99477.13;;;15.41;55.55
63351;BME280;64988;51.058;17.040;2023-03-23T22:01:36;99473.91;;;15.38;55.98
63351;BME280;64988;51.058;17.040;2023-03-23T22:07:04;99473.06;;;15.37;57.15
63351;BME280;64988;51.058;17.040;2023-03-23T22:12:32;99469.16;;;15.56;55.80
63351;BME280;64988;51.058;17.040;2023-03-23T22:18:00;99465.06;;;15.52;56.04
63351;BME280;64988;51.058;17.040;2023-03-23T22:23:28;99465.75;;;15.30;57.21
63351;BME280;64988;51.058;17.040;2023-03-23T22:28:55;99472.72;;;15.24;57.48
63351;BME280;64988;51.058;17.040;2023-03-23T22:34:24;99486.66;;;15.29;57.28
63351;BME280;64988;51.058;17.040;2023-03-23T22:39:52;99478.69;;;15.28;56.72
63351;BME280;64988;51.058;17.040;2023-03-23T22:45:19;99474.44;;;15.17;57.51
63351;BME280;64988;51.058;17.040;2023-03-23T22:50:48;99463.53;;;15.09;57.64
63351;BME280;64988;51.058;17.040;2023-03-23T22:56:15;99463.88;;;15.06;57.55
63351;BME280;64988;51.058;17.040;2023-03-23T23:01:43;99467.28;;;15.00;57.95
63351;BME280;64988;51.058;17.040;2023-03-23T23:07:11;99462.19;;;14.89;57.77
63351;BME280;64988;51.058;17.040;2023-03-23T23:12:40;99460.47;;;14.71;58.24
63351;BME280;64988;51.058;17.040;2023-03-23T23:18:09;99456.06;;;14.79;58.12
63351;BME280;64988;51.058;17.040;2023-03-23T23:23:37;99454.38;;;14.86;58.46
63351;BME280;64988;51.058;17.040;2023-03-23T23:29:05;99448.63;;;15.05;57.98
63351;BME280;64988;51.058;17.040;2023-03-23T23:34:32;99445.88;;;15.29;57.05
63351;BME280;64988;51.058;17.040;2023-03-23T23:40:00;99449.06;;;15.65;56.36
63351;BME280;64988;51.058;17.040;2023-03-23T23:45:27;99439.09;;;15.96;55.37
63351;BME280;64988;51.058;17.040;2023-03-23T23:50:55;99439.88;;;16.21;54.64
63351;BME280;64988;51.058;17.040;2023-03-23T23:56:22;99436.78;;;16.24;54.35
